sensor_id;sensor_type;location;lat;lon;timestamp;temperature;humidity
36186;DHT22;22228;53.222;7.446;2022-11-06T00:00:26;9.60;99.90
36186;DHT22;22228;53.222;7.446;2022-11-06T00:02:56;9.60;99.90
36186;DHT22;22228;53.222;7.446;2022-11-06T00:05:45;9.60;99.90
36186;DHT22;22228;53.222;7.446;2022-11-06T00:08:33;9.70;99.90
36186;DHT22;22228;53.222;7.446;2022-11-06T00:10:56;9.70;99.90
36186;DHT22;22228;53.222;7.446;2022-11-06T00:13:17;9.70;99.90
36186;DHT22;22228;53.222;7.446;2022-11-06T00:15:44;9.70;99.90
36186;DHT22;22228;53.222;7.446;2022-11-06T00:18:11;9.70;99.90
36186;DHT22;22228;53.222;7.446;2022-11-06T00:20:32;9.70;99.90
36186;DHT22;22228;53.222;7.446;2022-11-06T00:22:55;9.70;99.90
36186;DHT22;22228;53.222;7.446;2022-11-06T00:25:17;9.70;99.90
36186;DHT22;22228;53.222;7.446;2022-11-06T00:27:44;9.70;99.90
36186;DHT22;22228;53.222;7.446;2022-11-06T00:30:07;9.70;99.90
36186;DHT22;22228;53.222;7.446;2022-11-06T00:32:30;9.70;99.90
36186;DHT22;22228;53.222;7.446;2022-11-06T00:34:54;9.70;99.90
36186;DHT22;22228;53.222;7.446;2022-11-06T00:37:14;9.70;99.90
36186;DHT22;22228;53.222;7.446;2022-11-06T00:39:36;9.70;99.90
36186;DHT22;22228;53.222;7.446;2022-11-06T00:42:23;9.70;99.90
36186;DHT22;22228;53.222;7.446;2022-11-06T00:45:09;9.70;99.90
36186;DHT22;22228;53.222;7.446;2022-11-06T00:47:30;9.70;99.90
36186;DHT22;22228;53.222;7.446;2022-11-06T00:49:58;9.80;99.90
36186;DHT22;22228;53.222;7.446;2022-11-06T00:52:19;9.80;99.90
36186;DHT22;22228;53.222;7.446;2022-11-06T00:54:41;9.80;99.90
36186;DHT22;22228;53.222;7.446;2022-11-06T00:57:02;9.90;99.90
36186;DHT22;22228;53.222;7.446;2022-11-06T00:59:24;9.90;99.90
36186;DHT22;22228;53.222;7.446;2022-11-06T01:01:44;9.90;99.90
36186;DHT22;22228;53.222;7.446;2022-11-06T01:04:09;9.80;99.90
36186;DHT22;22228;53.222;7.446;2022-11-06T01:06:33;9.80;99.90
36186;DHT22;22228;53.222;7.446;2022-11-06T01:08:55;9.80;99.90
36186;DHT22;22228;53.222;7.446;2022-11-06T01:11:43;9.80;99.90
36186;DHT22;22228;53.222;7.446;2022-11-06T01:14:06;9.80;99.90
36186;DHT22;22228;53.222;7.446;2022-11-06T01:16:28;9.80;99.90
36186;DHT22;22228;53.222;7.446;2022-11-06T01:18:49;9.80;99.90
36186;DHT22;22228;53.222;7.446;2022-11-06T01:21:14;9.80;99.90
36186;DHT22;22228;53.222;7.446;2022-11-06T01:23:35;9.80;99.90
36186;DHT22;22228;53.222;7.446;2022-11-06T01:26:05;9.70;99.90
36186;DHT22;22228;53.222;7.446;2022-11-06T01:28:29;9.60;99.90
36186;DHT22;22228;53.222;7.446;2022-11-06T01:30:50;9.50;99.90
36186;DHT22;22228;53.222;7.446;2022-11-06T01:33:11;9.50;99.90
36186;DHT22;22228;53.222;7.446;2022-11-06T01:36:04;9.40;99.90
36186;DHT22;22228;53.222;7.446;2022-11-06T01:38:26;9.30;99.90
36186;DHT22;22228;53.222;7.446;2022-11-06T01:40:47;9.30;99.90
36186;DHT22;22228;53.222;7.446;2022-11-06T01:43:47;9.30;99.90
36186;DHT22;22228;53.222;7.446;2022-11-06T01:46:09;9.30;99.90
36186;DHT22;22228;53.222;7.446;2022-11-06T01:48:58;9.20;99.90
36186;DHT22;22228;53.222;7.446;2022-11-06T01:51:20;9.20;99.90
36186;DHT22;22228;53.222;7.446;2022-11-06T01:53:43;9.20;99.90
36186;DHT22;22228;53.222;7.446;2022-11-06T01:56:07;9.20;99.90
36186;DHT22;22228;53.222;7.446;2022-11-06T01:58:32;9.10;99.90
36186;DHT22;22228;53.222;7.446;2022-11-06T02:00:55;9.10;99.90
36186;DHT22;22228;53.222;7.446;2022-11-06T02:03:18;9.10;99.90
36186;DHT22;22228;53.222;7.446;2022-11-06T02:05:39;9.10;99.90
36186;DHT22;22228;53.222;7.446;2022-11-06T02:08:00;9.10;99.90
36186;DHT22;22228;53.222;7.446;2022-11-06T02:10:22;9.00;99.90
36186;DHT22;22228;53.222;7.446;2022-11-06T02:13:29;9.00;99.90
36186;DHT22;22228;53.222;7.446;2022-11-06T02:16:05;9.00;99.90
36186;DHT22;22228;53.222;7.446;2022-11-06T02:18:42;9.00;99.90
36186;DHT22;22228;53.222;7.446;2022-11-06T02:21:35;9.00;99.90
36186;DHT22;22228;53.222;7.446;2022-11-06T02:24:13;9.00;99.90
36186;DHT22;22228;53.222;7.446;2022-11-06T02:27:09;9.00;99.90
36186;DHT22;22228;53.222;7.446;2022-11-06T02:29:44;9.00;99.90
36186;DHT22;22228;53.222;7.446;2022-11-06T02:32:39;9.00;99.90
36186;DHT22;22228;53.222;7.446;2022-11-06T02:35:15;9.00;99.90
36186;DHT22;22228;53.222;7.446;2022-11-06T02:40:58;9.00;99.90
36186;DHT22;22228;53.222;7.446;2022-11-06T02:43:31;9.00;99.90
36186;DHT22;22228;53.222;7.446;2022-11-06T02:45:57;9.00;99.90
36186;DHT22;22228;53.222;7.446;2022-11-06T02:48:24;9.00;99.90
36186;DHT22;22228;53.222;7.446;2022-11-06T02:51:14;9.00;99.90
36186;DHT22;22228;53.222;7.446;2022-11-06T02:53:39;9.00;99.90
36186;DHT22;22228;53.222;7.446;2022-11-06T02:56:04;8.90;99.90
36186;DHT22;22228;53.222;7.446;2022-11-06T02:58:32;8.90;99.90
36186;DHT22;22228;53.222;7.446;2022-11-06T03:00:58;8.90;99.90
36186;DHT22;22228;53.222;7.446;2022-11-06T03:03:23;8.90;99.90
36186;DHT22;22228;53.222;7.446;2022-11-06T03:05:50;8.90;99.90
36186;DHT22;22228;53.222;7.446;2022-11-06T03:08:15;8.90;99.90
36186;DHT22;22228;53.222;7.446;2022-11-06T03:10:41;8.90;99.90
36186;DHT22;22228;53.222;7.446;2022-11-06T03:13:10;9.00;99.90
36186;DHT22;22228;53.222;7.446;2022-11-06T03:15:40;8.90;99.90
36186;DHT22;22228;53.222;7.446;2022-11-06T03:18:08;8.90;99.90
36186;DHT22;22228;53.222;7.446;2022-11-06T03:20:34;9.00;99.90
36186;DHT22;22228;53.222;7.446;2022-11-06T03:23:02;8.90;99.90
36186;DHT22;22228;53.222;7.446;2022-11-06T03:25:37;8.90;99.90
36186;DHT22;22228;53.222;7.446;2022-11-06T03:28:03;8.90;99.90
36186;DHT22;22228;53.222;7.446;2022-11-06T03:30:58;8.90;99.90
36186;DHT22;22228;53.222;7.446;2022-11-06T03:33:49;8.90;99.90
36186;DHT22;22228;53.222;7.446;2022-11-06T03:36:40;8.80;99.90
36186;DHT22;22228;53.222;7.446;2022-11-06T03:39:31;8.80;99.90
36186;DHT22;22228;53.222;7.446;2022-11-06T03:42:00;8.80;99.90
36186;DHT22;22228;53.222;7.446;2022-11-06T03:44:51;8.80;99.90
36186;DHT22;22228;53.222;7.446;2022-11-06T03:47:19;8.80;99.90
36186;DHT22;22228;53.222;7.446;2022-11-06T03:49:45;8.70;99.90
36186;DHT22;22228;53.222;7.446;2022-11-06T03:52:11;8.70;99.90
36186;DHT22;22228;53.222;7.446;2022-11-06T03:54:38;8.70;99.90
36186;DHT22;22228;53.222;7.446;2022-11-06T03:57:03;8.80;99.90
36186;DHT22;22228;53.222;7.446;2022-11-06T03:59:28;8.70;99.90
36186;DHT22;22228;53.222;7.446;2022-11-06T04:01:53;8.70;99.90
36186;DHT22;22228;53.222;7.446;2022-11-06T04:04:18;8.70;99.90
36186;DHT22;22228;53.222;7.446;2022-11-06T04:06:43;8.70;99.90
36186;DHT22;22228;53.222;7.446;2022-11-06T04:09:10;8.70;99.90
36186;DHT22;22228;53.222;7.446;2022-11-06T04:12:03;8.70;99.90
36186;DHT22;22228;53.222;7.446;2022-11-06T04:14:45;8.70;99.90
36186;DHT22;22228;53.222;7.446;2022-11-06T04:17:11;8.70;99.90
36186;DHT22;22228;53.222;7.446;2022-11-06T04:19:35;8.70;99.90
36186;DHT22;22228;53.222;7.446;2022-11-06T04:22:09;8.70;99.90
36186;DHT22;22228;53.222;7.446;2022-11-06T04:24:43;8.70;99.90
36186;DHT22;22228;53.222;7.446;2022-11-06T04:27:42;8.60;99.90
36186;DHT22;22228;53.222;7.446;2022-11-06T04:30:07;8.60;99.90
36186;DHT22;22228;53.222;7.446;2022-11-06T04:32:38;8.60;99.90
36186;DHT22;22228;53.222;7.446;2022-11-06T04:35:09;8.60;99.90
36186;DHT22;22228;53.222;7.446;2022-11-06T04:37:34;8.60;99.90
36186;DHT22;22228;53.222;7.446;2022-11-06T04:40:00;8.60;99.90
36186;DHT22;22228;53.222;7.446;2022-11-06T04:42:31;8.60;99.90
36186;DHT22;22228;53.222;7.446;2022-11-06T04:45:00;8.60;99.90
36186;DHT22;22228;53.222;7.446;2022-11-06T04:47:22;8.60;99.90
36186;DHT22;22228;53.222;7.446;2022-11-06T04:49:47;8.60;99.90
36186;DHT22;22228;53.222;7.446;2022-11-06T04:52:14;8.60;99.90
36186;DHT22;22228;53.222;7.446;2022-11-06T04:54:36;8.70;99.90
36186;DHT22;22228;53.222;7.446;2022-11-06T04:57:29;8.60;99.90
36186;DHT22;22228;53.222;7.446;2022-11-06T04:59:56;8.60;99.90
36186;DHT22;22228;53.222;7.446;2022-11-06T05:02:24;8.60;99.90
36186;DHT22;22228;53.222;7.446;2022-11-06T05:08:31;8.70;99.90
36186;DHT22;22228;53.222;7.446;2022-11-06T05:10:52;8.70;99.90
36186;DHT22;22228;53.222;7.446;2022-11-06T05:13:15;8.70;99.90
36186;DHT22;22228;53.222;7.446;2022-11-06T05:16:01;8.70;99.90
36186;DHT22;22228;53.222;7.446;2022-11-06T05:18:30;8.60;99.90
36186;DHT22;22228;53.222;7.446;2022-11-06T05:20:58;8.70;99.90
36186;DHT22;22228;53.222;7.446;2022-11-06T05:23:40;8.70;99.90
36186;DHT22;22228;53.222;7.446;2022-11-06T05:26:01;8.70;99.90
36186;DHT22;22228;53.222;7.446;2022-11-06T05:28:22;8.70;99.90
36186;DHT22;22228;53.222;7.446;2022-11-06T05:30:44;8.70;99.90
36186;DHT22;22228;53.222;7.446;2022-11-06T05:33:05;8.70;99.90
36186;DHT22;22228;53.222;7.446;2022-11-06T05:35:26;8.70;99.90
36186;DHT22;22228;53.222;7.446;2022-11-06T05:37:58;8.70;99.90
36186;DHT22;22228;53.222;7.446;2022-11-06T05:40:21;8.70;99.90
36186;DHT22;22228;53.222;7.446;2022-11-06T05:42:49;8.70;99.90
36186;DHT22;22228;53.222;7.446;2022-11-06T05:45:41;8.70;99.90
36186;DHT22;22228;53.222;7.446;2022-11-06T05:48:03;8.70;99.90
36186;DHT22;22228;53.222;7.446;2022-11-06T05:50:24;8.70;99.90
36186;DHT22;22228;53.222;7.446;2022-11-06T05:53:09;8.70;99.90
36186;DHT22;22228;53.222;7.446;2022-11-06T05:55:55;8.70;99.90
36186;DHT22;22228;53.222;7.446;2022-11-06T05:58:16;8.70;99.90
36186;DHT22;22228;53.222;7.446;2022-11-06T06:00:39;8.80;99.90
36186;DHT22;22228;53.222;7.446;2022-11-06T06:03:01;8.70;99.90
36186;DHT22;22228;53.222;7.446;2022-11-06T06:05:26;8.70;99.90
36186;DHT22;22228;53.222;7.446;2022-11-06T06:08:13;8.70;99.90
36186;DHT22;22228;53.222;7.446;2022-11-06T06:10:40;8.70;99.90
36186;DHT22;22228;53.222;7.446;2022-11-06T06:13:03;8.70;99.90
36186;DHT22;22228;53.222;7.446;2022-11-06T06:15:25;8.80;99.90
36186;DHT22;22228;53.222;7.446;2022-11-06T06:17:46;8.80;99.90
36186;DHT22;22228;53.222;7.446;2022-11-06T06:20:09;8.80;99.90
36186;DHT22;22228;53.222;7.446;2022-11-06T06:22:30;8.80;99.90
36186;DHT22;22228;53.222;7.446;2022-11-06T06:25:01;8.80;99.90
36186;DHT22;22228;53.222;7.446;2022-11-06T06:27:23;8.80;99.90
36186;DHT22;22228;53.222;7.446;2022-11-06T06:29:48;8.80;99.90
36186;DHT22;22228;53.222;7.446;2022-11-06T06:32:15;8.80;99.90
36186;DHT22;22228;53.222;7.446;2022-11-06T06:34:36;8.90;99.90
36186;DHT22;22228;53.222;7.446;2022-11-06T06:37:21;8.90;99.90
36186;DHT22;22228;53.222;7.446;2022-11-06T06:39:47;8.90;99.90
36186;DHT22;22228;53.222;7.446;2022-11-06T06:42:14;8.90;99.90
36186;DHT22;22228;53.222;7.446;2022-11-06T06:44:35;8.90;99.90
36186;DHT22;22228;53.222;7.446;2022-11-06T06:46:58;8.90;99.90
36186;DHT22;22228;53.222;7.446;2022-11-06T06:49:20;8.90;99.90
36186;DHT22;22228;53.222;7.446;2022-11-06T06:51:46;9.00;99.90
36186;DHT22;22228;53.222;7.446;2022-11-06T06:54:08;9.00;99.90
36186;DHT22;22228;53.222;7.446;2022-11-06T06:56:29;9.00;99.90
36186;DHT22;22228;53.222;7.446;2022-11-06T06:59:21;9.10;99.90
36186;DHT22;22228;53.222;7.446;2022-11-06T07:01:43;9.10;99.90
36186;DHT22;22228;53.222;7.446;2022-11-06T07:04:33;9.10;99.90
36186;DHT22;22228;53.222;7.446;2022-11-06T07:06:57;9.10;99.90
36186;DHT22;22228;53.222;7.446;2022-11-06T07:09:20;9.10;99.90
36186;DHT22;22228;53.222;7.446;2022-11-06T07:11:42;9.20;99.90
36186;DHT22;22228;53.222;7.446;2022-11-06T07:14:02;9.20;99.90
36186;DHT22;22228;53.222;7.446;2022-11-06T07:16:50;9.20;99.90
36186;DHT22;22228;53.222;7.446;2022-11-06T07:19:11;9.20;99.90
36186;DHT22;22228;53.222;7.446;2022-11-06T07:21:34;9.30;99.90
36186;DHT22;22228;53.222;7.446;2022-11-06T07:23:56;9.30;99.90
36186;DHT22;22228;53.222;7.446;2022-11-06T07:26:17;9.40;99.90
36186;DHT22;22228;53.222;7.446;2022-11-06T07:28:44;9.40;99.90
36186;DHT22;22228;53.222;7.446;2022-11-06T07:31:08;9.40;99.90
36186;DHT22;22228;53.222;7.446;2022-11-06T07:33:30;9.50;99.90
36186;DHT22;22228;53.222;7.446;2022-11-06T07:36:01;9.50;99.90
36186;DHT22;22228;53.222;7.446;2022-11-06T07:38:31;9.60;99.90
36186;DHT22;22228;53.222;7.446;2022-11-06T07:40:52;9.60;99.90
36186;DHT22;22228;53.222;7.446;2022-11-06T07:43:14;9.60;99.90
36186;DHT22;22228;53.222;7.446;2022-11-06T07:46:08;9.70;99.90
36186;DHT22;22228;53.222;7.446;2022-11-06T07:52:06;9.80;99.90
36186;DHT22;22228;53.222;7.446;2022-11-06T07:54:28;9.80;99.90
36186;DHT22;22228;53.222;7.446;2022-11-06T07:56:49;9.80;99.90
36186;DHT22;22228;53.222;7.446;2022-11-06T07:59:10;9.90;99.90
36186;DHT22;22228;53.222;7.446;2022-11-06T08:01:31;9.90;99.90
36186;DHT22;22228;53.222;7.446;2022-11-06T08:03:53;9.90;99.90
36186;DHT22;22228;53.222;7.446;2022-11-06T08:06:15;9.90;99.90
36186;DHT22;22228;53.222;7.446;2022-11-06T08:08:37;9.90;99.90
36186;DHT22;22228;53.222;7.446;2022-11-06T08:11:06;10.00;99.90
36186;DHT22;22228;53.222;7.446;2022-11-06T08:13:27;10.00;99.90
36186;DHT22;22228;53.222;7.446;2022-11-06T08:15:48;10.00;99.90
36186;DHT22;22228;53.222;7.446;2022-11-06T08:18:15;10.00;99.90
36186;DHT22;22228;53.222;7.446;2022-11-06T08:20:37;10.10;99.90
36186;DHT22;22228;53.222;7.446;2022-11-06T08:22:58;10.10;99.90
36186;DHT22;22228;53.222;7.446;2022-11-06T08:25:29;10.20;99.90
36186;DHT22;22228;53.222;7.446;2022-11-06T08:27:55;10.20;99.90
36186;DHT22;22228;53.222;7.446;2022-11-06T08:30:16;10.20;99.90
36186;DHT22;22228;53.222;7.446;2022-11-06T08:32:40;10.20;99.90
36186;DHT22;22228;53.222;7.446;2022-11-06T08:35:01;10.30;99.90
36186;DHT22;22228;53.222;7.446;2022-11-06T08:37:22;10.30;99.90
36186;DHT22;22228;53.222;7.446;2022-11-06T08:39:43;10.30;99.90
36186;DHT22;22228;53.222;7.446;2022-11-06T08:42:04;10.40;99.90
36186;DHT22;22228;53.222;7.446;2022-11-06T08:44:50;10.40;99.90
36186;DHT22;22228;53.222;7.446;2022-11-06T08:47:18;10.50;99.90
36186;DHT22;22228;53.222;7.446;2022-11-06T08:49:40;10.50;99.90
36186;DHT22;22228;53.222;7.446;2022-11-06T08:52:00;10.50;99.90
36186;DHT22;22228;53.222;7.446;2022-11-06T08:54:21;10.60;99.90
36186;DHT22;22228;53.222;7.446;2022-11-06T08:56:42;10.70;99.90
36186;DHT22;22228;53.222;7.446;2022-11-06T08:59:03;10.70;99.90
36186;DHT22;22228;53.222;7.446;2022-11-06T09:01:26;10.80;99.90
36186;DHT22;22228;53.222;7.446;2022-11-06T09:03:56;10.80;99.90
36186;DHT22;22228;53.222;7.446;2022-11-06T09:06:17;10.80;99.90
36186;DHT22;22228;53.222;7.446;2022-11-06T09:08:37;10.90;99.90
36186;DHT22;22228;53.222;7.446;2022-11-06T09:10:58;10.90;99.90
36186;DHT22;22228;53.222;7.446;2022-11-06T09:13:19;10.90;99.90
36186;DHT22;22228;53.222;7.446;2022-11-06T09:15:41;10.90;99.90
36186;DHT22;22228;53.222;7.446;2022-11-06T09:18:03;10.90;99.90
36186;DHT22;22228;53.222;7.446;2022-11-06T09:20:25;10.90;99.90
36186;DHT22;22228;53.222;7.446;2022-11-06T09:22:47;10.90;99.90
36186;DHT22;22228;53.222;7.446;2022-11-06T09:25:10;10.90;99.90
36186;DHT22;22228;53.222;7.446;2022-11-06T09:27:41;10.90;99.90
36186;DHT22;22228;53.222;7.446;2022-11-06T09:30:31;10.90;99.90
36186;DHT22;22228;53.222;7.446;2022-11-06T09:32:56;10.90;99.90
36186;DHT22;22228;53.222;7.446;2022-11-06T09:35:18;11.00;99.90
36186;DHT22;22228;53.222;7.446;2022-11-06T09:37:46;11.00;99.90
36186;DHT22;22228;53.222;7.446;2022-11-06T09:40:17;11.10;99.90
36186;DHT22;22228;53.222;7.446;2022-11-06T09:42:50;11.20;99.90
36186;DHT22;22228;53.222;7.446;2022-11-06T09:45:16;11.20;99.90
36186;DHT22;22228;53.222;7.446;2022-11-06T09:47:46;11.30;99.90
36186;DHT22;22228;53.222;7.446;2022-11-06T09:50:13;11.40;99.90
36186;DHT22;22228;53.222;7.446;2022-11-06T09:52:41;11.50;99.90
36186;DHT22;22228;53.222;7.446;2022-11-06T09:55:08;11.50;99.90
36186;DHT22;22228;53.222;7.446;2022-11-06T09:57:57;11.60;99.90
36186;DHT22;22228;53.222;7.446;2022-11-06T10:00:19;11.60;99.90
36186;DHT22;22228;53.222;7.446;2022-11-06T10:02:43;11.70;99.90
36186;DHT22;22228;53.222;7.446;2022-11-06T10:05:13;11.70;99.90
36186;DHT22;22228;53.222;7.446;2022-11-06T10:07:39;11.70;99.90
36186;DHT22;22228;53.222;7.446;2022-11-06T10:10:03;11.70;99.90
36186;DHT22;22228;53.222;7.446;2022-11-06T10:12:34;11.80;99.90
36186;DHT22;22228;53.222;7.446;2022-11-06T10:15:05;11.90;99.90
36186;DHT22;22228;53.222;7.446;2022-11-06T10:17:57;12.10;99.90
36186;DHT22;22228;53.222;7.446;2022-11-06T10:20:27;12.30;99.90
36186;DHT22;22228;53.222;7.446;2022-11-06T10:23:15;12.40;99.90
36186;DHT22;22228;53.222;7.446;2022-11-06T10:25:43;12.60;99.90
36186;DHT22;22228;53.222;7.446;2022-11-06T10:28:18;12.70;99.90
36186;DHT22;22228;53.222;7.446;2022-11-06T10:30:50;12.90;99.90
36186;DHT22;22228;53.222;7.446;2022-11-06T10:33:25;13.00;99.90
36186;DHT22;22228;53.222;7.446;2022-11-06T10:36:24;13.00;99.90
36186;DHT22;22228;53.222;7.446;2022-11-06T10:39:03;12.90;99.90
36186;DHT22;22228;53.222;7.446;2022-11-06T10:41:28;12.90;99.90
36186;DHT22;22228;53.222;7.446;2022-11-06T10:43:57;12.80;99.90
36186;DHT22;22228;53.222;7.446;2022-11-06T10:46:29;12.80;99.90
36186;DHT22;22228;53.222;7.446;2022-11-06T10:48:57;12.70;99.90
36186;DHT22;22228;53.222;7.446;2022-11-06T10:54:18;12.70;99.90
36186;DHT22;22228;53.222;7.446;2022-11-06T10:56:53;12.70;99.90
36186;DHT22;22228;53.222;7.446;2022-11-06T10:59:19;12.70;99.90
36186;DHT22;22228;53.222;7.446;2022-11-06T11:01:44;12.70;99.90
36186;DHT22;22228;53.222;7.446;2022-11-06T11:04:06;12.70;99.90
36186;DHT22;22228;53.222;7.446;2022-11-06T11:06:53;12.80;99.90
36186;DHT22;22228;53.222;7.446;2022-11-06T11:09:30;12.90;99.90
36186;DHT22;22228;53.222;7.446;2022-11-06T11:11:52;13.00;99.90
36186;DHT22;22228;53.222;7.446;2022-11-06T11:14:21;13.10;99.90
36186;DHT22;22228;53.222;7.446;2022-11-06T11:16:44;13.20;99.90
36186;DHT22;22228;53.222;7.446;2022-11-06T11:19:15;13.30;99.90
36186;DHT22;22228;53.222;7.446;2022-11-06T11:21:35;13.50;99.90
36186;DHT22;22228;53.222;7.446;2022-11-06T11:24:06;13.50;99.90
36186;DHT22;22228;53.222;7.446;2022-11-06T11:26:56;13.50;99.90
36186;DHT22;22228;53.222;7.446;2022-11-06T11:29:23;13.70;99.90
36186;DHT22;22228;53.222;7.446;2022-11-06T11:31:49;14.00;99.90
36186;DHT22;22228;53.222;7.446;2022-11-06T11:34:42;14.20;99.90
36186;DHT22;22228;53.222;7.446;2022-11-06T11:37:05;14.30;99.90
36186;DHT22;22228;53.222;7.446;2022-11-06T11:39:29;14.30;99.90
36186;DHT22;22228;53.222;7.446;2022-11-06T11:42:24;14.30;99.90
36186;DHT22;22228;53.222;7.446;2022-11-06T11:44:46;14.20;99.90
36186;DHT22;22228;53.222;7.446;2022-11-06T11:47:19;14.20;99.90
36186;DHT22;22228;53.222;7.446;2022-11-06T11:49:49;14.10;99.90
36186;DHT22;22228;53.222;7.446;2022-11-06T11:52:12;14.10;99.90
36186;DHT22;22228;53.222;7.446;2022-11-06T11:54:38;13.90;99.90
36186;DHT22;22228;53.222;7.446;2022-11-06T11:57:03;13.80;99.90
36186;DHT22;22228;53.222;7.446;2022-11-06T11:59:29;13.80;99.90
36186;DHT22;22228;53.222;7.446;2022-11-06T12:01:52;13.70;99.90
36186;DHT22;22228;53.222;7.446;2022-11-06T12:04:40;13.70;99.90
36186;DHT22;22228;53.222;7.446;2022-11-06T12:07:20;13.70;99.90
36186;DHT22;22228;53.222;7.446;2022-11-06T12:09:42;13.60;99.90
36186;DHT22;22228;53.222;7.446;2022-11-06T12:12:19;13.60;99.90
36186;DHT22;22228;53.222;7.446;2022-11-06T12:14:46;13.60;99.90
36186;DHT22;22228;53.222;7.446;2022-11-06T12:17:14;13.60;99.90
36186;DHT22;22228;53.222;7.446;2022-11-06T12:19:39;13.60;99.90
36186;DHT22;22228;53.222;7.446;2022-11-06T12:22:11;13.50;99.90
36186;DHT22;22228;53.222;7.446;2022-11-06T12:24:38;13.60;99.90
36186;DHT22;22228;53.222;7.446;2022-11-06T12:27:05;13.60;99.90
36186;DHT22;22228;53.222;7.446;2022-11-06T12:29:34;13.50;99.90
36186;DHT22;22228;53.222;7.446;2022-11-06T12:32:01;13.50;99.90
36186;DHT22;22228;53.222;7.446;2022-11-06T12:34:29;13.50;99.90
36186;DHT22;22228;53.222;7.446;2022-11-06T12:37:31;13.50;99.90
36186;DHT22;22228;53.222;7.446;2022-11-06T12:39:59;13.60;99.90
36186;DHT22;22228;53.222;7.446;2022-11-06T12:42:55;13.60;99.90
36186;DHT22;22228;53.222;7.446;2022-11-06T12:45:32;13.60;99.90
36186;DHT22;22228;53.222;7.446;2022-11-06T12:48:01;13.60;99.90
36186;DHT22;22228;53.222;7.446;2022-11-06T12:50:32;13.60;99.90
36186;DHT22;22228;53.222;7.446;2022-11-06T12:53:12;13.60;99.90
36186;DHT22;22228;53.222;7.446;2022-11-06T12:55:38;13.70;99.90
36186;DHT22;22228;53.222;7.446;2022-11-06T12:58:08;13.80;99.90
36186;DHT22;22228;53.222;7.446;2022-11-06T13:00:41;13.90;99.90
36186;DHT22;22228;53.222;7.446;2022-11-06T13:03:33;14.10;99.90
36186;DHT22;22228;53.222;7.446;2022-11-06T13:06:38;14.30;99.90
36186;DHT22;22228;53.222;7.446;2022-11-06T13:09:28;14.50;99.90
36186;DHT22;22228;53.222;7.446;2022-11-06T13:11:55;14.50;99.90
36186;DHT22;22228;53.222;7.446;2022-11-06T13:14:21;14.50;99.90
36186;DHT22;22228;53.222;7.446;2022-11-06T13:16:49;14.40;99.90
36186;DHT22;22228;53.222;7.446;2022-11-06T13:19:19;14.30;99.90
36186;DHT22;22228;53.222;7.446;2022-11-06T13:22:06;14.40;99.90
36186;DHT22;22228;53.222;7.446;2022-11-06T13:24:32;14.30;99.90
36186;DHT22;22228;53.222;7.446;2022-11-06T13:27:09;14.30;99.90
36186;DHT22;22228;53.222;7.446;2022-11-06T13:29:36;14.30;99.90
36186;DHT22;22228;53.222;7.446;2022-11-06T13:32:00;14.20;99.90
36186;DHT22;22228;53.222;7.446;2022-11-06T13:34:26;14.10;99.90
36186;DHT22;22228;53.222;7.446;2022-11-06T13:36:55;14.00;99.90
36186;DHT22;22228;53.222;7.446;2022-11-06T13:39:21;13.90;99.90
36186;DHT22;22228;53.222;7.446;2022-11-06T13:41:45;13.90;99.90
36186;DHT22;22228;53.222;7.446;2022-11-06T13:44:31;13.80;99.90
36186;DHT22;22228;53.222;7.446;2022-11-06T13:46:57;13.80;99.90
36186;DHT22;22228;53.222;7.446;2022-11-06T13:49:28;13.70;99.90
36186;DHT22;22228;53.222;7.446;2022-11-06T13:51:56;13.70;99.90
36186;DHT22;22228;53.222;7.446;2022-11-06T13:54:26;13.60;99.90
36186;DHT22;22228;53.222;7.446;2022-11-06T13:57:20;13.60;99.90
36186;DHT22;22228;53.222;7.446;2022-11-06T14:03:17;13.50;99.90
36186;DHT22;22228;53.222;7.446;2022-11-06T14:05:52;13.50;99.90
36186;DHT22;22228;53.222;7.446;2022-11-06T14:08:16;13.40;99.90
36186;DHT22;22228;53.222;7.446;2022-11-06T14:11:11;13.40;99.90
36186;DHT22;22228;53.222;7.446;2022-11-06T14:13:34;13.40;99.90
36186;DHT22;22228;53.222;7.446;2022-11-06T14:16:01;13.30;99.90
36186;DHT22;22228;53.222;7.446;2022-11-06T14:18:22;13.30;99.90
36186;DHT22;22228;53.222;7.446;2022-11-06T14:20:43;13.30;99.90
36186;DHT22;22228;53.222;7.446;2022-11-06T14:23:50;13.30;99.90
36186;DHT22;22228;53.222;7.446;2022-11-06T14:26:13;13.20;99.90
36186;DHT22;22228;53.222;7.446;2022-11-06T14:29:42;13.10;99.90
36186;DHT22;22228;53.222;7.446;2022-11-06T14:32:05;13.10;99.90
36186;DHT22;22228;53.222;7.446;2022-11-06T14:34:40;13.00;99.90
36186;DHT22;22228;53.222;7.446;2022-11-06T14:37:44;13.00;99.90
36186;DHT22;22228;53.222;7.446;2022-11-06T14:40:11;12.90;99.90
36186;DHT22;22228;53.222;7.446;2022-11-06T14:42:35;12.80;99.90
36186;DHT22;22228;53.222;7.446;2022-11-06T14:44:59;12.80;99.90
36186;DHT22;22228;53.222;7.446;2022-11-06T14:47:29;12.70;99.90
36186;DHT22;22228;53.222;7.446;2022-11-06T14:49:54;12.60;99.90
36186;DHT22;22228;53.222;7.446;2022-11-06T14:52:18;12.60;99.90
36186;DHT22;22228;53.222;7.446;2022-11-06T14:54:49;12.60;99.90
36186;DHT22;22228;53.222;7.446;2022-11-06T14:57:15;12.60;99.90
36186;DHT22;22228;53.222;7.446;2022-11-06T14:59:43;12.60;99.90
36186;DHT22;22228;53.222;7.446;2022-11-06T15:02:14;12.50;99.90
36186;DHT22;22228;53.222;7.446;2022-11-06T15:04:42;12.50;99.90
36186;DHT22;22228;53.222;7.446;2022-11-06T15:07:09;12.50;99.90
36186;DHT22;22228;53.222;7.446;2022-11-06T15:09:54;12.50;99.90
36186;DHT22;22228;53.222;7.446;2022-11-06T15:13:03;12.40;99.90
36186;DHT22;22228;53.222;7.446;2022-11-06T15:15:25;12.40;99.90
36186;DHT22;22228;53.222;7.446;2022-11-06T15:17:48;12.40;99.90
36186;DHT22;22228;53.222;7.446;2022-11-06T15:20:34;12.30;99.90
36186;DHT22;22228;53.222;7.446;2022-11-06T15:23:23;12.40;99.90
36186;DHT22;22228;53.222;7.446;2022-11-06T15:25:51;12.30;99.90
36186;DHT22;22228;53.222;7.446;2022-11-06T15:28:22;12.30;99.90
36186;DHT22;22228;53.222;7.446;2022-11-06T15:31:18;12.30;99.90
36186;DHT22;22228;53.222;7.446;2022-11-06T15:33:50;12.20;99.90
36186;DHT22;22228;53.222;7.446;2022-11-06T15:36:50;12.20;99.90
36186;DHT22;22228;53.222;7.446;2022-11-06T15:39:30;12.10;99.90
36186;DHT22;22228;53.222;7.446;2022-11-06T15:41:52;12.00;99.90
36186;DHT22;22228;53.222;7.446;2022-11-06T15:44:18;12.00;99.90
36186;DHT22;22228;53.222;7.446;2022-11-06T15:47:03;12.00;99.90
36186;DHT22;22228;53.222;7.446;2022-11-06T15:52:37;12.00;99.90
36186;DHT22;22228;53.222;7.446;2022-11-06T15:54:58;11.90;99.90
36186;DHT22;22228;53.222;7.446;2022-11-06T15:57:21;11.90;99.90
36186;DHT22;22228;53.222;7.446;2022-11-06T16:00:09;11.90;99.90
36186;DHT22;22228;53.222;7.446;2022-11-06T16:02:45;11.90;99.90
36186;DHT22;22228;53.222;7.446;2022-11-06T16:05:36;11.80;99.90
36186;DHT22;22228;53.222;7.446;2022-11-06T16:07:59;11.80;99.90
36186;DHT22;22228;53.222;7.446;2022-11-06T16:10:46;11.80;99.90
36186;DHT22;22228;53.222;7.446;2022-11-06T16:13:38;11.80;99.90
36186;DHT22;22228;53.222;7.446;2022-11-06T16:16:36;11.80;99.90